logo
App data

Reigning Cats

A new twist to a tower defense game, that will challenge your strategy and test your love for cats as you feed them and clean their litter box.
Store | Hub | SteamDB | Site
Developer: Myra D'Ann Publisher: Myra D'Ann
Genre: Casual, Indie, Simulation, Strategy
Languages: English
Tags: Casual (22), Indie (21), Simulation (21), Strategy (21), Tower Defense (14), Funny (12), Family Friendly (10)
Category: Single-player, Steam Achievements, Steam Trading Cards, Stats, Steam Leaderboards
Release date: Aug 28, 2015
Price: $1.99
Owners: 0 .. 20,000
Followers: 165
Playtime total: 02:09 (average) 02:58 (median)

Steam Spy is still in beta, so expect major bugs.

Owners data:

Access restricted.

This feature is only available to users with special access rights. Sorry.

If you want to proceed, you need to register or log in first and then back Steam Spy on Patreon. Look for Indie or Pro pledge.

Don't forget to use the same email as on Steam Spy!

Audience in 2 weeks:

Access restricted.

This feature is only available to users with special access rights. Sorry.

If you want to proceed, you need to register or log in first and then back Steam Spy on Patreon. Look for Indie or Pro pledge.

Don't forget to use the same email as on Steam Spy!

Peak daily concurrent players:

CCU data courtesy of SteamDB. Used with permission.

Hourly concurrent players:

YouTube:

The views data is based on top 50 videos uploaded last week. Actual number of views might be more than the number shown.

The displayed number of videos uploaded yesterday is limited to 50, so if there were more videos uploaded, the number will still show 50.

If the game has commonly used word as its name (like "FEAR" or "Volume") its number of Youtube views might be wrong.

Games similar to this one:

# Game Release date
Price
Score rank
(Userscore / Metascore)
Owners
Players
Playtime (Median)
1 Night Blights Apr 15, 2016 $6.99100% (100%)0 .. 20,0000%00:00 (00:00)
2 Everyday Genius: SquareLogic Oct 21, 2009 $4.9999% (98%)0 .. 20,0000%00:00 (00:00)
3 Unium Mar 27, 2015 $1.9993% (95%)20,000 .. 50,0000%00:00 (00:00)
4 Divide By Sheep Jul 2, 2015 $4.9993% (95%/83%)100,000 .. 200,0000.57%00:01 (00:00)
5 Moonlight Feb 5, 2016 $1.9993% (95%)0 .. 20,0000%00:00 (00:00)
6 Mevo and The Grooveriders Mar 20, 2009 $9.99N/A (N/A)0 .. 20,0000%00:00 (00:00)
7 Estiman Nov 23, 2016 $0.99N/A (N/A)0 .. 20,0000%00:00 (00:00)
8 Cloudberry Kingdom Aug 2, 2013 $9.9980% (91%/67%)20,000 .. 50,0000%00:00 (00:00)
9 The Way We All Go Mar 24, 2015 $5.9977% (90%)0 .. 20,0000%00:00 (00:00)
10 Koala Kids Jun 22, 2015 $1.9977% (90%)20,000 .. 50,0000%00:00 (00:00)
11 This Starry Midnight We Make Jun 1, 2015 $9.99N/A (N/A)0 .. 20,0000%00:00 (00:00)
12 Forgotten, Not Lost - A Kinetic Novel Apr 1, 2016 $1.9974% (89%)50,000 .. 100,0000.71%01:35 (01:03)
13 Lobotomy Corporation | Monster Management Simulation Apr 9, 2018 $24.9974% (89%)100,000 .. 200,0009.8%05:00 (04:55)
14 Rooms: The Unsolvable Puzzle May 1, 2015 $14.9971% (88%/66%)0 .. 20,0000%00:00 (00:00)
15 Masochisia Oct 9, 2015 $7.9966% (86%/68%)0 .. 20,0000%00:00 (00:00)
16 Alpha Runner Sep 2, 2015 $0.9966% (86%)100,000 .. 200,0000%00:00 (00:00)
17 Anode Oct 5, 2015 $3.9966% (86%)20,000 .. 50,0000%00:00 (00:00)
18 In Between Aug 21, 2015 $11.9966% (86%/68%)50,000 .. 100,0000%00:00 (00:00)
19 Security Hole Sep 28, 2016 $9.9966% (86%)0 .. 20,0000%00:00 (00:00)
20 Gigachess Dec 15, 2015 $3.9966% (86%)0 .. 20,0000%00:00 (00:00)
21 Sentinel 4: Dark Star Aug 13, 2015 $6.99N/A (N/A)0 .. 20,0000%00:00 (00:00)
22 Project Starship Apr 5, 2016 $0.9960% (84%)200,000 .. 500,0000.07%03:01 (01:00)
23 Collisions Jul 28, 2015 $3.9960% (84%)50,000 .. 100,0000%00:00 (00:00)
24 Crash Drive 2 May 28, 2015 $4.9960% (84%)50,000 .. 100,0000%00:00 (00:00)
25 Cute Things Dying Violently Sep 2, 2015 $2.99N/A (N/A)0 .. 20,0000%00:00 (00:00)
26 Governor of Poker 2 - Premium Edition Oct 11, 2010 $14.9958% (83%)20,000 .. 50,0001.43%00:23 (00:07)
27 Ancients of Ooga May 20, 2011 $9.99N/A (N/A)20,000 .. 50,0000%00:00 (00:00)
28 Automation - The Car Company Tycoon Game Mar 12, 2015 $29.9955% (82%)50,000 .. 100,00020.43%03:39 (02:00)
29 Stay Alight Mar 2, 2015 $3.9953% (81%)50,000 .. 100,0000%00:00 (00:00)
30 Star Sky - ブルームーン Oct 23, 2015 $3.9951% (80%)0 .. 20,0000%00:00 (00:00)
31 Egg Returns Home May 5, 2015 $0.9951% (80%)20,000 .. 50,0000%00:00 (00:00)
32 Space Drifters 2D Mar 28, 2016 $0.99N/A (N/A)20,000 .. 50,0000%00:00 (00:00)
33 Iron Sea Defenders Sep 9, 2016 $4.9949% (79%)20,000 .. 50,0000%00:00 (00:00)
34 The Last NightMary - A Lenda do Cabeça de Cuia Nov 2, 2015 $3.5949% (79%)50,000 .. 100,0000.58%00:01 (00:00)
35 GamersGoMakers Aug 8, 2014 $9.9949% (79%)0 .. 20,0000%00:00 (00:00)
36 CAPSULE May 29, 2014 $4.9946% (78%)0 .. 20,0000%00:00 (00:00)
37 Particulars Nov 19, 2014 $5.99N/A (N/A/74%)20,000 .. 50,0000%00:00 (00:00)
38 Until I Have You Apr 4, 2016 $1.3946% (78%)0 .. 20,0000%00:00 (00:00)
39 MXGP - The Official Motocross Videogame Mar 28, 2014 $9.9944% (77%)50,000 .. 100,0003.45%03:21 (01:56)
40 Paranormal State: Poison Spring Apr 9, 2014 $9.9944% (77%)50,000 .. 100,0000%00:00 (00:00)
41 Pixel Puzzles 2: Birds Feb 20, 2015 $9.9944% (77%)200,000 .. 500,0000.17%01:31 (00:30)
42 Mayhem Intergalactic Jan 22, 2009 $9.99N/A (N/A)0 .. 20,0000%00:00 (00:00)
43 Alchemy Mysteries: Prague Legends Dec 22, 2014 $1.9942% (76%)100,000 .. 200,0000.26%10:27 (03:29)
44 Crash Wheels Dec 20, 2018 $4.9942% (76%)20,000 .. 50,0003.23%00:08 (00:05)
45 Ionball 2: Ionstorm Jun 6, 2014 $4.9942% (76%/70%)200,000 .. 500,0000%00:00 (00:00)
46 Neon Prism Nov 18, 2016 $4.9940% (75%)50,000 .. 100,0000.48%01:53 (01:15)
47 BalanCity Sep 21, 2016 $7.9940% (75%)20,000 .. 50,0001.72%01:39 (00:44)
48 The Deletion Jul 30, 2015 $1.9940% (75%)20,000 .. 50,0000%00:00 (00:00)
49 Laserlife Sep 22, 2015 $9.9939% (74%)0 .. 20,0000%00:00 (00:00)
50 Riddles Of The Past Jul 22, 2016 $6.9937% (73%)0 .. 20,0000%00:00 (00:00)
51 Crashed Lander Feb 4, 2015 $4.99N/A (N/A)0 .. 20,0000%00:00 (00:00)
52 Cheesecake Cool Conrad Oct 8, 2014 $4.99N/A (N/A)0 .. 20,0000%00:00 (00:00)
53 Impossible Quest Jun 3, 2016 $1.9929% (68%)0 .. 20,0000%00:00 (00:00)
54 Ace Of Words May 13, 2016 $4.9929% (68%)100,000 .. 200,0000.27%00:01 (00:00)
55 Strategy & Tactics: Dark Ages Aug 4, 2017 $14.9929% (68%)20,000 .. 50,0000%00:00 (00:00)
56 Viking Brothers Apr 23, 2014 $9.99N/A (N/A)0 .. 20,0000%00:00 (00:00)
57 Mind Games Mar 4, 2016 $2.9927% (67%)0 .. 20,0000%00:00 (00:00)
58 Wildlife Park 2 Jul 17, 2014 $6.9926% (66%)50,000 .. 100,0002.38%06:57 (02:19)
59 Caravanserail Mar 10, 2016 $2.99N/A (N/A)0 .. 20,0000%00:00 (00:00)
60 Hoplite Dec 14, 2016 $0.4925% (65%)50,000 .. 100,0000%00:00 (00:00)
61 Reset 1-1 Aug 30, 2016 $1.9923% (64%)200,000 .. 500,0000.17%02:45 (01:03)
62 Marble Duel Nov 12, 2015 $4.9922% (63%)50,000 .. 100,0000%00:00 (00:00)
63 Metrocide Dec 15, 2014 $12.99N/A (N/A/68%)20,000 .. 50,0000%00:00 (00:00)
64 Meadowland Oct 22, 2014 $3.99N/A (N/A)0 .. 20,0000%00:00 (00:00)
65 Won't You Be My Laser? Sep 2, 2016 $0.99N/A (N/A)0 .. 20,0000%00:00 (00:00)
66 Goodnight Butcher Dec 18, 2015 $1.99N/A (N/A)20,000 .. 50,0000%00:00 (00:00)
67 Airstrike HD Mar 23, 2016 $1.9919% (60%)100,000 .. 200,0008.41%04:45 (04:11)
68 Pixel Survivors May 5, 2016 $3.9918% (59%)50,000 .. 100,0000%00:00 (00:00)
69 Star Chronicles: Delta Quadrant Jul 7, 2015 $0.9918% (59%)200,000 .. 500,0000%00:00 (00:00)
70 Boss Monster Apr 28, 2016 $4.9916% (57%)20,000 .. 50,0000%00:00 (00:00)
71 Annie Amber Jun 17, 2016 $2.9916% (57%)0 .. 20,0000%00:00 (00:00)
72 Hardware Engineering Sep 28, 2016 $4.9915% (56%)0 .. 20,0000%00:00 (00:00)
73 Autocraft Sep 20, 2017 $9.9913% (54%)20,000 .. 50,0000%00:00 (00:00)
74 Pointless Feb 22, 2016 Free13% (54%)0 .. 20,0000%00:00 (00:00)
75 1953: NATO vs Warsaw Pact Dec 4, 2014 $19.99N/A (N/A)0 .. 20,0000%00:00 (00:00)
76 Quantum Rush Champions Dec 4, 2014 $2.9911% (51%)20,000 .. 50,0000%00:00 (00:00)
77 The Good Life Nov 21, 2014 $9.9911% (51%)0 .. 20,0000%00:00 (00:00)
78 Cosmonautica Jul 31, 2015 $9.9911% (51%)100,000 .. 200,0000%00:00 (00:00)
79 Autumn May 14, 2016 $2.9911% (50%)50,000 .. 100,0001.14%00:46 (00:30)
80 BomberZone Jun 10, 2016 $1.9911% (50%)20,000 .. 50,0000.46%05:59 (01:59)
81 Evolution Jun 6, 2016 Free8% (46%)20,000 .. 50,0000%00:00 (00:00)
82 Luke Sidewalker Dec 5, 2016 $0.998% (46%)50,000 .. 100,0000%00:00 (00:00)
83 Melting Hearts: Our Love Will Grow 2 Apr 29, 2016 N/A8% (45%)20,000 .. 50,0000%00:00 (00:00)
84 White Mirror Jan 26, 2016 $1.995% (39%)200,000 .. 500,0000%00:00 (00:00)
85 The Battle for Sector 219 Jun 2, 2016 $6.99N/A (N/A)0 .. 20,0000%00:00 (00:00)
86 Space Beret Oct 25, 2016 $0.99N/A (N/A)200,000 .. 500,0000.15%01:12 (00:48)
87 Robot vs Birds Zombies Jul 23, 2015 $0.993% (31%)0 .. 20,0001.79%00:17 (00:05)
88 Guardians of Victoria Apr 29, 2016 $1.992% (22%)200,000 .. 500,0000.08%19:39 (06:33)
89 Blob From Space Oct 15, 2014 $5.99N/A (N/A)20,000 .. 50,0000%00:00 (00:00)
90 Crab Cakes Rescue Nov 14, 2014 $6.99N/A (N/A)20,000 .. 50,0000.33%02:08 (00:42)
91 Plight of the Zombie Feb 22, 2016 $2.99N/A (N/A)0 .. 20,0000%00:00 (00:00)
92 Way to Go! Jun 8, 2015 $4.99N/A (N/A)0 .. 20,0000%00:00 (00:00)
93 Attempt[42] Dec 8, 2016 $2.99N/A (N/A)50,000 .. 100,0000%00:00 (00:00)
94 The Architect Jun 4, 2015 N/AN/A (N/A)0 .. 20,0000%00:00 (00:00)
95 Tyler Jan 14, 2016 $2.99N/A (N/A)0 .. 20,0000%00:00 (00:00)
96 Yrminsul Mar 2, 2016 $9.99N/A (N/A)0 .. 20,0000%00:00 (00:00)
97 Robot Rescue Revolution Jul 11, 2014 $4.99N/A (N/A)0 .. 20,0000%00:00 (00:00)
98 Magic Box Jan 19, 2017 $0.99N/A (N/A)50,000 .. 100,0000%00:00 (00:00)

Tags over time:

Access restricted.

This feature is only available to users with special access rights. Sorry.

If you want to proceed, you need to register or log in first and then back Steam Spy on Patreon. Look for Indie or Pro pledge.

Don't forget to use the same email as on Steam Spy!

Owners of this game also own:

Access restricted.

This feature is only available to users with special access rights. Sorry.

If you want to proceed, you need to register or log in first and then back Steam Spy on Patreon. Look for Indie or Pro pledge.

Don't forget to use the same email as on Steam Spy!

Playtime distribution:

Access restricted.

This feature is only available to users with special access rights. Sorry.

If you want to proceed, you need to register or log in first and then back Steam Spy on Patreon. Look for Indie or Pro pledge.

Don't forget to use the same email as on Steam Spy!

Playtime (2 weeks):

Access restricted.

This feature is only available to users with special access rights. Sorry.

If you want to proceed, you need to register or log in first and then back Steam Spy on Patreon. Look for Indie or Pro pledge.

Don't forget to use the same email as on Steam Spy!

User reviews:

Login required.

Please register or log in to see this information.